Time;durP1;ratioP1;P1;durP2;ratioP2;P2;SDS_P1;SDS_P2;PMS_P1;PMS_P2;Temp;Humidity;BMP_temperature;BMP_pressure;BME280_temperature;BME280_humidity;BME280_pressure;Samples;Min_cycle;Max_cycle;Signal;HPM_P1;HPM_P2
2023/07/12 00:02:24;;;;;;;3.95;2.03;;;20.00;99.90;;;;;;4945005;28;20130;-50
2023/07/12 00:04:49;;;;;;;4.25;2.13;;;20.00;99.90;;;;;;4945515;28;20123;-48
2023/07/12 00:07:15;;;;;;;4.45;1.98;;;19.90;99.90;;;;;;4928329;28;20078;-50
2023/07/12 00:09:41;;;;;;;3.95;1.88;;;19.80;99.90;;;;;;4944962;28;20384;-48
2023/07/12 00:12:07;;;;;;;3.10;1.80;;;19.90;99.90;;;;;;4944206;28;20470;-50
2023/07/12 00:14:33;;;;;;;3.53;2.20;;;19.90;99.90;;;;;;4945369;28;20089;-49
2023/07/12 00:16:58;;;;;;;4.50;1.92;;;19.80;99.90;;;;;;4945050;28;20038;-49
2023/07/12 00:19:24;;;;;;;3.70;1.70;;;19.80;99.90;;;;;;4944166;28;20065;-49
2023/07/12 00:21:50;;;;;;;4.40;1.90;;;19.80;99.90;;;;;;4943724;28;20127;-49
2023/07/12 00:24:16;;;;;;;3.83;2.05;;;19.80;99.90;;;;;;4945171;28;20106;-50
2023/07/12 00:26:42;;;;;;;3.25;1.70;;;19.80;99.90;;;;;;4945162;28;20709;-49
2023/07/12 00:29:08;;;;;;;3.58;1.80;;;19.80;99.90;;;;;;4945221;28;21343;-51
2023/07/12 00:31:35;;;;;;;6.18;1.58;;;19.70;99.90;;;;;;4943582;28;20050;-50
2023/07/12 00:34:01;;;;;;;4.05;1.70;;;19.70;99.90;;;;;;4945197;28;20039;-50
2023/07/12 00:36:31;;;;;;;6.75;1.63;;;19.70;99.90;;;;;;4945037;28;20039;-48
2023/07/12 00:38:58;;;;;;;4.25;1.50;;;19.70;99.90;;;;;;4945062;28;20118;-50
2023/07/12 00:41:42;;;;;;;3.40;1.50;;;19.60;99.90;;;;;;4943918;28;20115;-52
2023/07/12 00:44:13;;;;;;;4.57;1.70;;;19.50;99.90;;;;;;4944465;28;20039;-51
2023/07/12 00:46:44;;;;;;;6.70;1.70;;;19.50;99.90;;;;;;4927874;28;20047;-48
2023/07/12 00:49:10;;;;;;;4.25;1.88;;;19.50;99.90;;;;;;4944273;28;20555;-46
2023/07/12 00:52:10;;;;;;;4.80;1.70;;;19.50;99.90;;;;;;4944476;28;20463;-52
2023/07/12 00:54:58;;;;;;;6.03;1.77;;;19.50;99.90;;;;;;4944445;28;20046;-49
2023/07/12 00:57:29;;;;;;;5.70;2.00;;;19.50;99.90;;;;;;4926798;28;20050;-49
2023/07/12 00:59:59;;;;;;;4.53;1.77;;;19.50;99.90;;;;;;4943471;28;20031;-49
2023/07/12 01:02:25;;;;;;;4.93;2.00;;;19.50;99.90;;;;;;4945192;28;20471;-50
2023/07/12 01:04:55;;;;;;;4.90;2.17;;;19.50;99.90;;;;;;4943447;28;20031;-50
2023/07/12 01:07:23;;;;;;;5.65;1.77;;;19.50;99.90;;;;;;4943976;28;20062;-48
2023/07/12 01:09:49;;;;;;;3.85;1.80;;;19.50;99.90;;;;;;4944528;28;20080;-52
2023/07/12 01:12:15;;;;;;;3.58;1.85;;;19.50;99.90;;;;;;4944508;28;20406;-49
2023/07/12 01:14:43;;;;;;;5.65;2.05;;;19.40;99.90;;;;;;4927001;28;20511;-49
2023/07/12 01:17:09;;;;;;;4.88;1.95;;;19.40;99.90;;;;;;4943437;28;20031;-52
2023/07/12 01:19:37;;;;;;;7.15;2.38;;;19.50;99.90;;;;;;4943892;28;20058;-47
2023/07/12 01:22:04;;;;;;;6.00;2.42;;;19.40;99.90;;;;;;4944183;28;20051;-48
2023/07/12 01:24:31;;;;;;;5.90;2.60;;;19.40;99.90;;;;;;4944963;28;20365;-48
2023/07/12 01:27:01;;;;;;;6.10;2.47;;;19.40;99.90;;;;;;4943629;28;20330;-50
2023/07/12 01:29:27;;;;;;;5.53;2.70;;;19.30;99.90;;;;;;4943859;28;20035;-50
2023/07/12 01:31:53;;;;;;;6.72;2.70;;;19.30;99.90;;;;;;4944766;28;20127;-48
2023/07/12 01:34:19;;;;;;;4.70;2.67;;;19.30;99.90;;;;;;4943650;28;20043;-48
2023/07/12 01:36:45;;;;;;;5.28;2.65;;;19.20;99.90;;;;;;4943651;28;20043;-51
2023/07/12 01:39:11;;;;;;;5.20;2.75;;;19.20;99.90;;;;;;4944615;28;20078;-50
2023/07/12 01:41:37;;;;;;;7.50;3.00;;;19.10;99.90;;;;;;4943418;28;20040;-48
2023/07/12 01:44:04;;;;;;;5.55;2.78;;;19.10;99.90;;;;;;4943396;28;20049;-48
2023/07/12 01:46:30;;;;;;;5.90;3.08;;;19.00;99.90;;;;;;4944102;28;20051;-50
2023/07/12 01:48:56;;;;;;;5.75;2.90;;;19.00;99.90;;;;;;4926819;28;20050;-51
2023/07/12 01:51:23;;;;;;;4.43;2.72;;;19.00;99.90;;;;;;4943198;28;20036;-52
2023/07/12 01:53:48;;;;;;;5.95;3.00;;;19.00;99.90;;;;;;4943237;28;20371;-51
2023/07/12 01:56:15;;;;;;;17.67;3.28;;;19.00;99.90;;;;;;4943554;28;20042;-48
2023/07/12 01:58:41;;;;;;;6.43;3.00;;;19.00;99.90;;;;;;4942785;28;20142;-48
2023/07/12 02:01:07;;;;;;;5.28;3.35;;;18.90;99.90;;;;;;4944450;28;20105;-49
2023/07/12 02:03:33;;;;;;;6.05;3.13;;;18.90;99.90;;;;;;4944137;28;20098;-48
2023/07/12 02:05:59;;;;;;;7.20;3.85;;;18.80;99.90;;;;;;4926669;28;20039;-48
2023/07/12 02:08:25;;;;;;;5.40;3.42;;;18.80;99.90;;;;;;4926879;28;20039;-52
2023/07/12 02:10:51;;;;;;;8.85;3.58;;;18.80;99.90;;;;;;4943883;28;20059;-50
2023/07/12 02:13:17;;;;;;;9.10;3.97;;;18.80;99.90;;;;;;4943385;28;20122;-51
2023/07/12 02:15:43;;;;;;;8.18;3.38;;;18.80;99.90;;;;;;4944018;28;20062;-52
2023/07/12 02:18:11;;;;;;;7.88;3.30;;;18.80;99.90;;;;;;4943004;28;20054;-51
2023/07/12 02:20:36;;;;;;;9.38;3.15;;;18.80;99.90;;;;;;4925692;28;20039;-49
2023/07/12 02:23:02;;;;;;;6.68;2.65;;;18.80;99.90;;;;;;4944010;28;20054;-52
2023/07/12 02:25:28;;;;;;;8.95;3.08;;;18.70;99.90;;;;;;4943279;28;20173;-49
2023/07/12 02:27:54;;;;;;;7.40;2.72;;;18.60;99.90;;;;;;4944038;28;20031;-49
2023/07/12 02:30:29;;;;;;;13.57;3.22;;;18.60;99.90;;;;;;4944032;28;20522;-48
2023/07/12 02:32:55;;;;;;;13.88;3.42;;;18.40;99.90;;;;;;4944005;28;20039;-51
2023/07/12 02:35:22;;;;;;;10.27;3.50;;;18.40;99.90;;;;;;4942091;28;20042;-47
2023/07/12 02:37:49;;;;;;;8.50;3.35;;;18.20;99.90;;;;;;4943586;28;20050;-49
2023/07/12 02:40:14;;;;;;;11.20;3.88;;;18.20;99.90;;;;;;4942515;28;20431;-45
2023/07/12 02:42:40;;;;;;;10.30;3.72;;;18.10;99.90;;;;;;4943755;28;20039;-51
2023/07/12 02:45:07;;;;;;;9.60;4.00;;;18.10;99.90;;;;;;4947451;28;20086;-50
2023/07/12 02:47:33;;;;;;;11.52;4.70;;;18.10;99.90;;;;;;4928685;28;20066;-49
2023/07/12 02:49:59;;;;;;;13.20;4.35;;;18.20;99.90;;;;;;4929008;28;20105;-48
2023/07/12 02:52:25;;;;;;;11.18;4.30;;;18.20;99.90;;;;;;4946416;28;20055;-47
2023/07/12 02:54:51;;;;;;;9.13;3.78;;;18.10;99.90;;;;;;4945858;28;20038;-46
2023/07/12 02:57:17;;;;;;;10.20;3.55;;;18.00;99.90;;;;;;4929808;28;22674;-51
2023/07/12 02:59:43;;;;;;;9.80;4.03;;;17.90;99.90;;;;;;4947190;28;20419;-51
2023/07/12 03:02:12;;;;;;;10.30;4.50;;;17.90;99.90;;;;;;4946337;28;20039;-50
2023/07/12 03:04:37;;;;;;;13.52;4.28;;;18.00;99.90;;;;;;4946848;28;20113;-50
2023/07/12 03:07:04;;;;;;;10.98;4.15;;;18.00;99.90;;;;;;4928548;28;20498;-50
2023/07/12 03:09:30;;;;;;;12.48;4.97;;;18.00;99.90;;;;;;4946047;28;20031;-48
2023/07/12 03:11:56;;;;;;;13.35;4.65;;;17.90;99.90;;;;;;4944143;28;20102;-48
2023/07/12 03:14:23;;;;;;;9.65;4.10;;;18.00;99.90;;;;;;4945851;28;20042;-50
2023/07/12 03:16:48;;;;;;;11.98;4.68;;;17.90;99.90;;;;;;4945616;28;20105;-46
2023/07/12 03:19:15;;;;;;;11.20;4.00;;;17.90;99.90;;;;;;4943960;28;20040;-48
2023/07/12 03:21:42;;;;;;;9.60;4.43;;;18.00;99.90;;;;;;4944376;28;20530;-50
2023/07/12 03:24:09;;;;;;;10.25;4.32;;;17.90;99.90;;;;;;4944051;28;20032;-49
2023/07/12 03:26:36;;;;;;;10.77;4.60;;;17.90;99.90;;;;;;4944304;28;20590;-50
2023/07/12 03:29:02;;;;;;;10.32;4.20;;;17.90;99.90;;;;;;4944841;28;20310;-48
2023/07/12 03:31:31;;;;;;;10.82;4.30;;;17.90;99.90;;;;;;4943980;28;20035;-49
2023/07/12 03:33:58;;;;;;;11.18;4.45;;;17.80;99.90;;;;;;4944655;28;20042;-51
2023/07/12 03:36:28;;;;;;;9.52;4.00;;;17.90;99.90;;;;;;4927695;28;20077;-51
2023/07/12 03:38:54;;;;;;;10.32;4.47;;;17.80;99.90;;;;;;4942956;28;20051;-44
2023/07/12 03:41:21;;;;;;;9.63;3.95;;;17.80;99.90;;;;;;4944223;28;20043;-49
2023/07/12 03:43:47;;;;;;;11.88;3.95;;;17.80;99.90;;;;;;4944276;28;20391;-48
2023/07/12 03:46:13;;;;;;;12.57;5.07;;;17.70;99.90;;;;;;4943671;28;20446;-48
2023/07/12 03:48:39;;;;;;;12.05;4.30;;;17.80;99.90;;;;;;4944766;28;20047;-50
2023/07/12 03:51:06;;;;;;;10.60;4.30;;;17.70;99.90;;;;;;4911188;28;20059;-50
2023/07/12 03:53:31;;;;;;;11.65;4.68;;;17.70;99.90;;;;;;4943162;28;20042;-49
2023/07/12 03:56:00;;;;;;;12.27;4.70;;;17.80;99.90;;;;;;4942596;28;20031;-46
2023/07/12 03:58:29;;;;;;;14.30;5.13;;;17.80;99.90;;;;;;4942995;28;20052;-47
2023/07/12 04:00:55;;;;;;;14.82;5.43;;;17.70;99.90;;;;;;4943671;28;20043;-47
2023/07/12 04:03:21;;;;;;;13.00;5.28;;;17.70;99.90;;;;;;4946007;28;20082;-47
2023/07/12 04:05:51;;;;;;;13.85;5.68;;;17.70;99.90;;;;;;4943842;28;20050;-49
2023/07/12 04:08:18;;;;;;;10.40;4.88;;;17.80;99.90;;;;;;4945273;28;20150;-49
2023/07/12 04:10:44;;;;;;;12.30;5.30;;;17.70;99.90;;;;;;4946062;28;20035;-50
2023/07/12 04:13:10;;;;;;;13.95;5.75;;;17.80;99.90;;;;;;4945334;28;20113;-51
2023/07/12 04:15:36;;;;;;;13.93;5.18;;;17.80;99.90;;;;;;4945114;28;20052;-47
2023/07/12 04:18:03;;;;;;;12.30;5.20;;;17.70;99.90;;;;;;4946467;28;20061;-47
2023/07/12 04:20:30;;;;;;;13.43;5.68;;;17.80;99.90;;;;;;4944447;28;20058;-48
2023/07/12 04:22:56;;;;;;;15.45;5.85;;;17.70;99.90;;;;;;4945171;28;20045;-53
2023/07/12 04:25:22;;;;;;;15.85;6.10;;;17.70;99.90;;;;;;4944395;28;20039;-48
2023/07/12 04:27:47;;;;;;;12.15;5.53;;;17.70;99.90;;;;;;4945209;28;20059;-47
2023/07/12 04:30:15;;;;;;;13.70;6.13;;;17.70;99.90;;;;;;4927097;28;20035;-46
2023/07/12 04:32:41;;;;;;;13.90;5.70;;;17.70;99.90;;;;;;4943959;28;20035;-45
2023/07/12 04:35:07;;;;;;;11.85;5.57;;;17.70;99.90;;;;;;4943740;28;20034;-50
2023/07/12 04:37:34;;;;;;;12.82;6.25;;;17.70;99.90;;;;;;4943931;28;20312;-49
2023/07/12 04:40:00;;;;;;;11.05;5.00;;;17.80;99.90;;;;;;4939711;28;20439;-51
2023/07/12 04:42:26;;;;;;;12.63;4.78;;;17.80;99.90;;;;;;4943575;28;20039;-45
2023/07/12 04:44:52;;;;;;;15.65;5.82;;;17.80;99.90;;;;;;4944855;28;20028;-51
2023/07/12 04:47:18;;;;;;;17.42;6.30;;;17.70;99.90;;;;;;4943719;28;20114;-50
2023/07/12 04:49:44;;;;;;;14.93;5.53;;;17.80;99.90;;;;;;4944427;28;20031;-50
2023/07/12 04:52:13;;;;;;;15.00;5.93;;;17.70;99.90;;;;;;4944161;28;20031;-50
2023/07/12 04:54:41;;;;;;;14.18;6.65;;;17.80;99.90;;;;;;4944578;28;20376;-50
2023/07/12 04:57:08;;;;;;;12.70;5.95;;;17.80;99.90;;;;;;4944130;28;20035;-48
2023/07/12 04:59:35;;;;;;;13.23;5.97;;;17.90;99.90;;;;;;4944834;28;20110;-48
2023/07/12 05:02:01;;;;;;;14.32;6.68;;;17.80;99.90;;;;;;4944516;28;20047;-46
2023/07/12 05:04:26;;;;;;;12.70;6.45;;;17.90;99.90;;;;;;4944861;28;20043;-50
2023/07/12 05:06:52;;;;;;;13.13;6.28;;;17.90;99.90;;;;;;4926276;28;20126;-50
2023/07/12 05:09:20;;;;;;;15.15;6.15;;;17.90;99.90;;;;;;4944503;28;20064;-47
2023/07/12 05:11:49;;;;;;;15.05;6.13;;;17.80;99.90;;;;;;4927154;28;20057;-48
2023/07/12 05:14:15;;;;;;;14.25;5.97;;;17.90;99.90;;;;;;4944754;28;20046;-49
2023/07/12 05:16:41;;;;;;;13.93;5.75;;;17.80;99.90;;;;;;4942979;28;20144;-46
2023/07/12 05:19:07;;;;;;;16.92;6.22;;;17.70;99.90;;;;;;4944499;28;20827;-49
2023/07/12 05:21:32;;;;;;;13.38;5.97;;;17.70;99.90;;;;;;4943708;28;20063;-47
2023/07/12 05:23:58;;;;;;;12.90;5.75;;;17.80;99.90;;;;;;4944338;28;20119;-46
2023/07/12 05:26:24;;;;;;;15.45;5.90;;;17.80;99.90;;;;;;4910527;28;20039;-49
2023/07/12 05:28:50;;;;;;;15.57;6.20;;;17.70;99.90;;;;;;4943662;28;20043;-51
2023/07/12 05:31:15;;;;;;;15.93;7.00;;;17.90;99.90;;;;;;4943848;28;20399;-49
2023/07/12 05:33:44;;;;;;;14.93;6.75;;;17.90;99.90;;;;;;4926942;28;20086;-47
2023/07/12 05:36:11;;;;;;;17.27;6.60;;;17.90;99.90;;;;;;4943000;28;20048;-49
2023/07/12 05:38:36;;;;;;;14.27;7.38;;;18.00;99.90;;;;;;4942808;28;20035;-49
2023/07/12 05:41:03;;;;;;;14.38;7.03;;;18.10;99.90;;;;;;4942504;28;20048;-46
2023/07/12 05:43:29;;;;;;;14.88;7.82;;;18.00;99.90;;;;;;4944504;28;20031;-51
2023/07/12 05:45:58;;;;;;;14.52;8.20;;;18.00;99.90;;;;;;4944492;28;20050;-50
2023/07/12 05:48:24;;;;;;;17.48;9.18;;;17.90;99.90;;;;;;4943231;28;20037;-50
2023/07/12 05:50:51;;;;;;;18.13;9.10;;;17.90;99.90;;;;;;4944300;28;20569;-48
2023/07/12 05:53:17;;;;;;;15.65;9.32;;;17.90;99.90;;;;;;4943404;28;20126;-52
2023/07/12 05:55:43;;;;;;;16.63;9.77;;;17.80;99.90;;;;;;4943583;28;20127;-51
2023/07/12 05:58:08;;;;;;;17.02;10.48;;;17.90;99.90;;;;;;4942179;28;20039;-50
2023/07/12 06:00:34;;;;;;;15.82;10.00;;;17.90;99.90;;;;;;4942831;28;20147;-50
2023/07/12 06:03:00;;;;;;;18.33;11.63;;;17.80;99.90;;;;;;4942421;28;20567;-50
2023/07/12 06:05:26;;;;;;;19.00;10.90;;;17.80;99.90;;;;;;4942447;28;20043;-49
2023/07/12 06:07:51;;;;;;;17.00;10.20;;;18.00;99.90;;;;;;4943379;28;20046;-48
2023/07/12 06:10:18;;;;;;;19.00;10.48;;;18.00;99.90;;;;;;4944097;28;20495;-46
2023/07/12 06:12:44;;;;;;;17.20;10.38;;;18.10;99.90;;;;;;4943636;28;20054;-50
2023/07/12 06:15:10;;;;;;;15.20;9.52;;;18.10;99.90;;;;;;4943476;28;20051;-46
2023/07/12 06:17:36;;;;;;;18.58;9.52;;;18.20;99.90;;;;;;4943673;28;20035;-45
2023/07/12 06:20:02;;;;;;;16.42;9.52;;;18.20;99.90;;;;;;4945588;28;20143;-50
2023/07/12 06:22:28;;;;;;;16.60;9.23;;;18.30;99.90;;;;;;4929631;28;20051;-48
2023/07/12 06:24:54;;;;;;;17.65;8.75;;;18.30;99.90;;;;;;4947279;28;20035;-51
2023/07/12 06:27:20;;;;;;;14.70;8.85;;;18.40;99.90;;;;;;4947097;28;20479;-47
2023/07/12 06:29:47;;;;;;;15.73;8.20;;;18.40;99.90;;;;;;4947612;28;20479;-51
2023/07/12 06:32:13;;;;;;;16.13;8.15;;;18.50;99.90;;;;;;4946793;28;20119;-49
2023/07/12 06:34:39;;;;;;;15.27;8.82;;;18.60;99.90;;;;;;4947414;28;20043;-48
2023/07/12 06:37:05;;;;;;;16.73;8.00;;;18.50;99.90;;;;;;4947606;28;20095;-47
2023/07/12 06:39:31;;;;;;;17.60;8.13;;;18.50;99.90;;;;;;4946600;28;20396;-52
2023/07/12 06:41:57;;;;;;;15.93;7.88;;;18.60;99.90;;;;;;4946103;28;20074;-48
2023/07/12 06:44:22;;;;;;;14.60;8.52;;;18.60;99.90;;;;;;4946504;28;20031;-49
2023/07/12 06:46:48;;;;;;;15.82;8.20;;;18.60;99.90;;;;;;4946497;28;20122;-48
2023/07/12 06:49:15;;;;;;;12.48;6.65;;;18.60;99.90;;;;;;4929065;28;20094;-47
2023/07/12 06:51:46;;;;;;;15.85;6.35;;;18.70;99.90;;;;;;4947073;28;20599;-47
2023/07/12 06:54:15;;;;;;;16.70;6.40;;;18.60;99.90;;;;;;4946653;28;20080;-49
2023/07/12 06:56:41;;;;;;;17.80;7.03;;;18.60;99.90;;;;;;4947583;28;20047;-47
2023/07/12 06:59:08;;;;;;;13.98;5.40;;;18.50;99.90;;;;;;4946644;28;20413;-47
2023/07/12 07:01:34;;;;;;;15.77;5.90;;;18.60;99.90;;;;;;4945711;28;20044;-50
2023/07/12 07:04:01;;;;;;;13.13;5.90;;;18.60;99.90;;;;;;4946974;28;20035;-51
2023/07/12 07:06:26;;;;;;;14.18;6.00;;;18.60;99.90;;;;;;4944823;28;20066;-50
2023/07/12 07:08:52;;;;;;;12.00;5.97;;;18.60;99.90;;;;;;4946824;28;20039;-49
2023/07/12 07:11:18;;;;;;;13.38;6.57;;;18.70;99.90;;;;;;4928825;28;20558;-49
2023/07/12 07:13:43;;;;;;;15.20;6.85;;;18.80;99.90;;;;;;4946003;28;20044;-50
2023/07/12 07:16:10;;;;;;;14.43;6.72;;;18.80;99.90;;;;;;4945969;28;20094;-48
2023/07/12 07:18:36;;;;;;;13.93;6.97;;;18.90;99.90;;;;;;4945846;28;20438;-47
2023/07/12 07:21:03;;;;;;;13.98;7.15;;;18.80;99.90;;;;;;4946486;28;20043;-49
2023/07/12 07:23:28;;;;;;;21.10;8.15;;;18.80;99.90;;;;;;4929147;28;20380;-49
2023/07/12 07:25:55;;;;;;;14.27;7.10;;;18.70;99.90;;;;;;4945734;28;20035;-48
2023/07/12 07:28:21;;;;;;;16.52;7.40;;;18.70;99.90;;;;;;4945845;28;20732;-49
2023/07/12 07:30:55;;;;;;;16.08;7.38;;;18.80;99.90;;;;;;4943372;28;20055;-51
2023/07/12 07:33:21;;;;;;;14.30;7.72;;;18.80;99.90;;;;;;4950880;28;20134;-48
2023/07/12 07:35:47;;;;;;;13.05;6.60;;;19.00;99.90;;;;;;4954352;28;20464;-50
2023/07/12 07:38:13;;;;;;;17.00;7.85;;;19.10;99.90;;;;;;4953585;28;20027;-46
2023/07/12 07:40:42;;;;;;;14.10;7.53;;;19.20;99.90;;;;;;4953496;28;20113;-49
2023/07/12 07:43:09;;;;;;;16.50;7.95;;;19.30;99.90;;;;;;4951455;28;20045;-51
2023/07/12 07:45:35;;;;;;;13.63;6.65;;;19.50;99.90;;;;;;4935853;28;20097;-47
2023/07/12 07:48:00;;;;;;;14.63;6.50;;;19.50;99.90;;;;;;4951416;28;20439;-49
2023/07/12 07:50:26;;;;;;;13.45;6.47;;;19.50;99.90;;;;;;4945132;28;20071;-49
2023/07/12 07:52:53;;;;;;;20.42;6.60;;;19.60;99.90;;;;;;4944455;28;20043;-49
2023/07/12 07:55:20;;;;;;;15.45;7.07;;;19.70;99.90;;;;;;4945062;28;20419;-50
2023/07/12 07:57:46;;;;;;;14.93;7.63;;;19.70;99.90;;;;;;4945974;28;20099;-51
2023/07/12 08:00:13;;;;;;;14.48;7.20;;;19.70;99.90;;;;;;4945818;28;20459;-49
2023/07/12 08:02:43;;;;;;;14.48;6.47;;;19.80;99.90;;;;;;4944908;28;20394;-48
2023/07/12 08:05:10;;;;;;;17.00;5.90;;;19.90;99.90;;;;;;4946559;28;20383;-47
2023/07/12 08:07:41;;;;;;;12.68;5.50;;;20.00;99.90;;;;;;4943370;28;20034;-50
2023/07/12 08:10:10;;;;;;;11.73;5.10;;;20.00;99.90;;;;;;4945064;28;20031;-50
2023/07/12 08:12:36;;;;;;;13.23;5.03;;;20.10;99.90;;;;;;4943690;28;20063;-51
2023/07/12 08:15:02;;;;;;;12.13;5.63;;;20.00;99.90;;;;;;4944566;28;20090;-51
2023/07/12 08:17:28;;;;;;;14.85;5.40;;;19.90;99.90;;;;;;4926604;28;20043;-48
2023/07/12 08:19:54;;;;;;;9.88;4.53;;;19.90;99.90;;;;;;4942554;28;20188;-49
2023/07/12 08:22:20;;;;;;;13.35;4.55;;;19.70;99.90;;;;;;4945236;28;20118;-52
2023/07/12 08:24:46;;;;;;;12.57;4.65;;;19.70;99.90;;;;;;4944215;28;20030;-48
2023/07/12 08:27:13;;;;;;;12.45;5.65;;;19.50;99.90;;;;;;4944947;28;20118;-50
2023/07/12 08:29:39;;;;;;;15.40;5.78;;;19.50;99.90;;;;;;4944440;28;20039;-47
2023/07/12 08:32:05;;;;;;;15.32;6.65;;;19.50;99.90;;;;;;4943905;28;20043;-48
2023/07/12 08:34:31;;;;;;;14.65;6.50;;;19.30;99.90;;;;;;4943864;28;20035;-46
2023/07/12 08:36:57;;;;;;;12.98;5.57;;;19.10;99.90;;;;;;4944308;28;20574;-51
2023/07/12 08:39:23;;;;;;;16.73;6.13;;;19.00;99.90;;;;;;4944507;28;20431;-51
2023/07/12 08:41:51;;;;;;;24.63;6.57;;;18.90;99.90;;;;;;4943755;28;20043;-52
2023/07/12 08:44:18;;;;;;;16.50;6.20;;;18.80;99.90;;;;;;4943357;28;20502;-50
2023/07/12 08:46:51;;;;;;;15.25;5.97;;;18.70;99.90;;;;;;4944107;28;20035;-46
2023/07/12 08:49:18;;;;;;;18.00;6.10;;;18.60;99.90;;;;;;4943908;28;20039;-47
2023/07/12 08:51:45;;;;;;;15.85;5.90;;;18.70;99.90;;;;;;4944973;28;20043;-52
2023/07/12 08:54:25;;;;;;;13.98;7.10;;;18.80;99.90;;;;;;4942368;28;20054;-48
2023/07/12 08:57:07;;;;;;;12.23;5.07;;;19.00;99.90;;;;;;4944519;28;20456;-48
2023/07/12 08:59:33;;;;;;;13.40;5.45;;;19.10;99.90;;;;;;4925769;28;20464;-49
2023/07/12 09:02:00;;;;;;;11.85;6.88;;;19.10;99.90;;;;;;4950995;28;20471;-48
2023/07/12 09:04:28;;;;;;;17.48;7.63;;;19.20;99.90;;;;;;4950809;28;20058;-52
2023/07/12 09:07:01;;;;;;;15.55;7.03;;;19.40;99.90;;;;;;4950543;28;20512;-50
2023/07/12 09:09:27;;;;;;;16.33;5.40;;;19.80;99.90;;;;;;4952800;28;20111;-50
2023/07/12 09:11:54;;;;;;;17.77;4.78;;;20.00;99.90;;;;;;4952471;28;20079;-50
2023/07/12 09:14:23;;;;;;;14.82;4.85;;;20.00;99.90;;;;;;4952615;28;20426;-47
2023/07/12 09:16:59;;;;;;;9.88;3.65;;;19.90;99.90;;;;;;4951643;28;20384;-52
2023/07/12 09:19:30;;;;;;;11.82;4.40;;;19.80;99.90;;;;;;4953791;28;20065;-48
2023/07/12 09:21:59;;;;;;;10.50;3.72;;;19.70;99.90;;;;;;4952220;28;20411;-48
2023/07/12 09:24:28;;;;;;;12.27;4.18;;;19.60;99.90;;;;;;4952559;28;20039;-48
2023/07/12 09:27:05;;;;;;;11.82;3.72;;;19.70;99.90;;;;;;4952979;28;20046;-48
2023/07/12 09:29:33;;;;;;;12.13;3.90;;;19.80;99.90;;;;;;4951885;28;20043;-51
2023/07/12 09:32:27;;;;;;;13.98;3.50;;;19.90;99.90;;;;;;4952352;28;20055;-47
2023/07/12 09:34:57;;;;;;;;;;;19.80;99.90;;;;;;4938996;28;20134;-49
2023/07/12 09:37:23;;;;;;;9.05;3.58;;;19.70;99.90;;;;;;4952633;28;20591;-49
2023/07/12 09:39:53;;;;;;;9.50;3.20;;;19.80;99.90;;;;;;4951329;28;20093;-49
2023/07/12 09:42:19;;;;;;;10.27;3.20;;;19.90;99.90;;;;;;4951133;28;20043;-52
2023/07/12 09:44:47;;;;;;;11.25;3.38;;;20.10;99.90;;;;;;4952161;28;20498;-52
2023/07/12 09:47:37;;;;;;;14.00;3.55;;;20.30;99.90;;;;;;4952606;28;20047;-51
2023/07/12 09:50:20;;;;;;;10.93;3.35;;;20.30;99.90;;;;;;4951891;28;20233;-49
2023/07/12 09:52:56;;;;;;;10.73;3.10;;;20.20;99.90;;;;;;4954844;28;20395;-49
2023/07/12 09:55:45;;;;;;;8.43;2.67;;;20.30;99.90;;;;;;4954956;28;20035;-49
2023/07/12 09:58:48;;;;;;;7.20;2.60;;;20.40;99.90;;;;;;4928404;28;20059;-46
2023/07/12 10:01:34;;;;;;;8.75;2.80;;;20.50;99.90;;;;;;4944016;28;20062;-49
2023/07/12 10:04:27;;;;;;;9.50;2.72;;;20.50;99.90;;;;;;4953453;28;20047;-48
2023/07/12 10:06:55;;;;;;;6.38;2.00;;;20.70;99.90;;;;;;4954173;28;20111;-50
2023/07/12 10:09:33;;;;;;;7.85;2.65;;;21.00;99.90;;;;;;4939605;28;20095;-46
2023/07/12 10:12:04;;;;;;;5.55;1.90;;;21.20;99.90;;;;;;4956430;28;20047;-49
2023/07/12 10:14:34;;;;;;;6.60;1.83;;;21.50;99.90;;;;;;4955919;28;20078;-48
2023/07/12 10:17:01;;;;;;;6.13;1.65;;;21.40;99.90;;;;;;4955987;28;20042;-49
2023/07/12 10:19:32;;;;;;;5.40;1.20;;;21.30;99.90;;;;;;4954411;28;20035;-49
2023/07/12 10:22:00;;;;;;;7.57;1.70;;;21.40;99.90;;;;;;4953980;28;20043;-46
2023/07/12 10:24:35;;;;;;;6.07;1.80;;;21.50;99.90;;;;;;4952523;28;20046;-50
2023/07/12 10:27:04;;;;;;;6.45;1.92;;;21.40;99.90;;;;;;4950481;28;20043;-49
2023/07/12 10:29:45;;;;;;;6.43;1.80;;;21.20;99.90;;;;;;4950954;28;20094;-46
2023/07/12 10:32:21;;;;;;;6.28;1.88;;;21.30;99.90;;;;;;4947535;28;20477;-47
2023/07/12 10:35:08;;;;;;;6.95;1.90;;;21.40;99.90;;;;;;4954484;28;20051;-48
2023/07/12 10:38:01;;;;;;;7.18;2.00;;;21.50;99.90;;;;;;4955858;28;20495;-49
2023/07/12 10:40:35;;;;;;;8.35;2.20;;;21.60;99.90;;;;;;4954519;28;20130;-46
2023/07/12 10:43:06;;;;;;;7.72;1.73;;;21.70;99.90;;;;;;4951218;28;20046;-47
2023/07/12 10:45:35;;;;;;;6.28;1.83;;;21.80;99.90;;;;;;4954082;28;20039;-52
2023/07/12 10:48:03;;;;;;;7.65;1.92;;;21.90;99.90;;;;;;4948040;28;20086;-48
2023/07/12 10:50:37;;;;;;;7.20;1.85;;;22.10;99.90;;;;;;4951498;28;20099;-48
2023/07/12 10:53:21;;;;;;;8.13;2.00;;;22.10;99.90;;;;;;4953042;28;20039;-50
2023/07/12 10:56:17;;;;;;;4.80;1.50;;;22.20;99.90;;;;;;4952301;28;20053;-51
2023/07/12 10:58:50;;;;;;;5.65;1.73;;;22.40;99.90;;;;;;4910008;28;20045;-51
2023/07/12 11:01:42;;;;;;;8.73;2.23;;;22.60;99.90;;;;;;4953479;28;20110;-48
2023/07/12 11:04:09;;;;;;;6.13;2.00;;;22.60;99.90;;;;;;4952924;28;20043;-47
2023/07/12 11:06:35;;;;;;;7.18;1.58;;;22.80;99.90;;;;;;4936080;28;20079;-51
2023/07/12 11:09:11;;;;;;;5.10;1.15;;;22.80;99.90;;;;;;4952485;28;20546;-46
2023/07/12 11:11:43;;;;;;;6.50;1.20;;;22.70;99.90;;;;;;4935470;28;20047;-50
2023/07/12 11:14:19;;;;;;;6.68;1.13;;;22.60;99.90;;;;;;4950762;28;20387;-49
2023/07/12 11:17:05;;;;;;;3.53;1.10;;;22.60;99.90;;;;;;4951841;28;20047;-51
2023/07/12 11:19:37;;;;;;;3.45;1.23;;;22.70;99.90;;;;;;4952282;28;20039;-49
2023/07/12 11:22:10;;;;;;;5.70;1.30;;;23.00;99.90;;;;;;4953367;28;20043;-48
2023/07/12 11:24:38;;;;;;;4.03;1.57;;;23.10;99.90;;;;;;4951800;28;20062;-47
2023/07/12 11:27:23;;;;;;;4.80;1.30;;;23.20;99.90;;;;;;4952877;28;20825;-50
2023/07/12 11:29:56;;;;;;;4.60;1.20;;;23.00;99.90;;;;;;4950123;28;20127;-48
2023/07/12 11:32:33;;;;;;;3.58;1.00;;;22.90;99.90;;;;;;4951934;28;20051;-50
2023/07/12 11:35:36;;;;;;;6.65;1.40;;;23.00;99.90;;;;;;4952672;28;20075;-51
2023/07/12 11:38:04;;;;;;;8.52;1.88;;;23.20;99.90;;;;;;4951638;28;20480;-51
2023/07/12 11:40:35;;;;;;;6.18;1.48;;;23.40;99.90;;;;;;4952467;28;20035;-45
2023/07/12 11:43:23;;;;;;;4.05;1.40;;;23.40;99.90;;;;;;4953000;28;20042;-51
2023/07/12 11:45:55;;;;;;;3.97;1.40;;;23.40;99.90;;;;;;4939885;28;20051;-50
2023/07/12 11:48:23;;;;;;;5.00;1.30;;;23.30;99.90;;;;;;4939265;28;20050;-49
2023/07/12 11:50:51;;;;;;;4.65;1.42;;;23.30;99.90;;;;;;4944750;28;20047;-52
2023/07/12 11:53:18;;;;;;;4.70;1.48;;;23.50;99.90;;;;;;4945385;28;20086;-48
2023/07/12 11:55:47;;;;;;;6.60;1.42;;;23.60;99.90;;;;;;4922944;28;20053;-47
2023/07/12 11:58:21;;;;;;;5.22;1.33;;;23.60;99.90;;;;;;4944750;28;20035;-50
2023/07/12 12:00:53;;;;;;;3.42;1.00;;;23.70;99.90;;;;;;4947300;28;20399;-51
2023/07/12 12:03:19;;;;;;;4.05;1.52;;;23.80;99.90;;;;;;4928427;28;20138;-52
2023/07/12 12:05:46;;;;;;;3.13;1.00;;;24.00;99.90;;;;;;4945379;28;20063;-50
2023/07/12 12:08:25;;;;;;;3.67;1.33;;;24.10;99.90;;;;;;4944833;28;20439;-49
2023/07/12 12:10:53;;;;;;;4.35;0.90;;;24.00;99.90;;;;;;4945310;28;20035;-48
2023/07/12 12:13:19;;;;;;;2.33;0.70;;;24.00;99.90;;;;;;4944433;28;20039;-51
2023/07/12 12:16:06;;;;;;;3.53;0.70;;;24.00;99.90;;;;;;4927307;28;23859;-49
2023/07/12 12:18:34;;;;;;;5.30;0.77;;;24.10;99.90;;;;;;4943681;28;20046;-50
2023/07/12 12:21:04;;;;;;;3.35;0.82;;;24.20;99.90;;;;;;4945380;28;20559;-51
2023/07/12 12:23:35;;;;;;;3.15;0.80;;;24.20;99.90;;;;;;4944690;28;20079;-49
2023/07/12 12:26:19;;;;;;;2.50;0.70;;;24.30;99.90;;;;;;4926905;28;20039;-49
2023/07/12 12:28:52;;;;;;;4.13;0.90;;;24.40;99.90;;;;;;4944622;28;20073;-48
2023/07/12 12:31:20;;;;;;;5.05;1.23;;;24.50;99.90;;;;;;4945191;28;20039;-47
2023/07/12 12:33:51;;;;;;;4.00;0.80;;;24.60;99.90;;;;;;4945095;28;20442;-52
2023/07/12 12:36:27;;;;;;;2.97;0.80;;;24.60;99.90;;;;;;5081131;27;23103;-47
2023/07/12 12:39:03;;;;;;;4.15;1.08;;;24.50;99.90;;;;;;5080480;28;20036;-47
2023/07/12 12:41:39;;;;;;;3.53;0.95;;;24.60;99.90;;;;;;5080153;28;20510;-47
2023/07/12 12:44:15;;;;;;;4.40;0.90;;;24.80;99.90;;;;;;5094332;28;20077;-49
2023/07/12 12:46:41;;;;;;;3.40;0.82;;;24.80;99.90;;;;;;5079417;28;20119;-48
2023/07/12 12:49:23;;;;;;;4.57;0.88;;;24.70;99.90;;;;;;5079024;28;20036;-48
2023/07/12 12:51:51;;;;;;;3.90;1.10;;;24.80;99.90;;;;;;5078943;28;20028;-49